615VGS Twitter

615VGS Facebook

Staff Login


Staff who require login details should contact the MCO.

Join 615 VGS

 

 

615 VGS Partner

bigatmo

Course Photos 2013

Upcoming Events

No events

KY Aviation Wx

[source: ADDS]
METAR
EGKB 251050Z 04009KT 010V070 9999 SCT030 22/14 Q1017 =
TAF
TAF EGKB 251101Z 2512/2520 03009KT 9999 SCT020 TEMPO 2513/2520 7000 SHRA PROB30 TEMPO 2513/2520 VRB15G25KT 4000 +SHRA TSRA =
SR / SS: 04:14 / 19:57 UTC (Sunrise/Sunset 2014-07-25)